Melfort, Canada
Current Conditions -  °F | °C
As of 5:00 AM on Saturday 25 Oct 2014 (Local Time) from CYBU Reporting Station
Clear Clear  
Wind Chill: -2°   Ceiling: Unl
Heat Index:   Visibility: 9mi
Dew Point: -2°   Wind: 8mph
Humidity: 75%   Direction: 240°WSW
Pressure: 29.9"   Gusts: NA
Location:  52.86°N, 104.62°W
Report Text: CYBU 251100Z AUTO 24007KT 9SM CLR 02/M02 A2990 RMK SLP140
Loading
Personal Weather Stations






























Interactive Weather Map
Tropical Storm Tracking
New forecast layout! Learn more

10-Day Weather Forecast

Advertisements
Track Severe Weather on mobile